createdAt,value
2022-11-11T00:00:27.956Z,40.63
2022-11-11T00:03:09.215Z,43.55
2022-11-11T00:05:50.582Z,40.97
2022-11-11T00:08:32.590Z,44.33
2022-11-11T00:11:14.872Z,47.25
2022-11-11T00:13:55.894Z,37.97
2022-11-11T00:16:54.970Z,44.88
2022-11-11T00:19:55.121Z,43.83
2022-11-11T00:22:54.782Z,47.43
2022-11-11T00:25:37.221Z,43.85
2022-11-11T00:28:18.488Z,45.70
2022-11-11T00:31:10.917Z,48.55
2022-11-11T00:33:53.407Z,45.67
2022-11-11T00:36:34.828Z,47.77
2022-11-11T00:39:16.206Z,45.53
2022-11-11T00:41:57.670Z,46.10
2022-11-11T00:44:38.644Z,46.15
2022-11-11T00:47:38.629Z,45.08
2022-11-11T00:50:40.764Z,43.03
2022-11-11T00:53:27.115Z,43.65
2022-11-11T00:56:08.723Z,46.38
2022-11-11T00:58:51.039Z,45.33
2022-11-11T01:01:34.310Z,43.90
2022-11-11T01:04:15.634Z,46.63
2022-11-11T01:06:56.761Z,50.58
2022-11-11T01:09:37.852Z,49.15
2022-11-11T01:12:18.850Z,45.75
2022-11-11T01:15:00.132Z,45.33
2022-11-11T01:17:41.764Z,45.37
2022-11-11T01:20:23.190Z,46.53
2022-11-11T01:23:06.201Z,43.85
2022-11-11T01:25:47.883Z,45.25
2022-11-11T01:28:29.308Z,50.45
2022-11-11T01:31:14.446Z,46.93
2022-11-11T01:33:55.891Z,44.92
2022-11-11T01:36:37.549Z,46.40
2022-11-11T01:39:18.836Z,44.70
2022-11-11T01:42:02.131Z,46.38
2022-11-11T01:44:47.055Z,41.13
2022-11-11T01:48:16.692Z,46.20
2022-11-11T01:50:49.938Z,51.58
2022-11-11T01:53:31.295Z,45.83
2022-11-11T01:56:12.771Z,44.08
2022-11-11T01:58:57.351Z,46.10
2022-11-11T02:01:39.560Z,43.65
2022-11-11T02:04:40.230Z,46.25
2022-11-11T02:07:22.788Z,43.80
2022-11-11T02:10:08.658Z,45.38
2022-11-11T02:13:08.391Z,42.00
2022-11-11T02:15:49.757Z,44.80
2022-11-11T02:18:32.771Z,40.95
2022-11-11T02:21:20.615Z,43.83
2022-11-11T02:24:05.146Z,45.28
2022-11-11T02:26:48.539Z,42.97
2022-11-11T02:29:31.479Z,43.10
2022-11-11T02:32:12.458Z,43.47
2022-11-11T02:34:53.957Z,48.97
2022-11-11T02:37:35.343Z,44.80
2022-11-11T02:40:19.530Z,46.70
2022-11-11T02:43:00.940Z,45.40
2022-11-11T02:45:42.098Z,41.47
2022-11-11T02:48:24.987Z,46.53
2022-11-11T02:51:07.369Z,42.17
2022-11-11T02:53:48.441Z,44.20
2022-11-11T02:56:48.207Z,41.80
2022-11-11T02:59:30.589Z,43.85
2022-11-11T03:02:12.581Z,45.67
2022-11-11T03:04:57.927Z,43.08
2022-11-11T03:07:39.538Z,44.97
2022-11-11T03:10:21.315Z,47.10
2022-11-11T03:13:02.508Z,45.60
2022-11-11T03:15:44.067Z,43.75
2022-11-11T03:18:25.484Z,48.67
2022-11-11T03:21:46.832Z,48.83
2022-11-11T03:24:08.002Z,46.58
2022-11-11T03:26:49.513Z,51.47
2022-11-11T03:29:30.886Z,44.50
2022-11-11T03:32:12.005Z,49.50
2022-11-11T03:34:53.064Z,51.60
2022-11-11T03:37:52.210Z,49.35
2022-11-11T03:40:33.508Z,50.33
2022-11-11T03:43:17.397Z,55.00
2022-11-11T03:46:00.654Z,55.47
2022-11-11T03:48:41.894Z,51.53
2022-11-11T03:51:22.797Z,51.63
2022-11-11T03:54:03.780Z,48.88
2022-11-11T03:56:44.540Z,51.15
2022-11-11T03:59:25.782Z,50.80
2022-11-11T04:02:25.646Z,50.30
2022-11-11T04:05:25.551Z,53.80
2022-11-11T04:08:30.620Z,53.45
2022-11-11T04:11:18.039Z,58.60
2022-11-11T04:14:24.275Z,52.65
2022-11-11T04:17:05.218Z,51.07
2022-11-11T04:20:04.558Z,57.28
2022-11-11T04:22:45.980Z,50.63
2022-11-11T04:25:45.367Z,52.15
2022-11-11T04:28:45.205Z,47.92
2022-11-11T04:31:26.177Z,48.57
2022-11-11T04:34:07.171Z,56.08
2022-11-11T04:36:47.946Z,51.78
2022-11-11T04:39:48.098Z,55.92
2022-11-11T04:42:30.950Z,52.08
2022-11-11T04:45:30.991Z,60.40
2022-11-11T04:48:13.354Z,52.05
2022-11-11T04:50:54.235Z,58.53
2022-11-11T04:53:37.413Z,56.88
2022-11-11T04:56:38.136Z,51.42
2022-11-11T04:59:20.354Z,51.67
2022-11-11T05:02:20.019Z,50.70
2022-11-11T05:05:01.090Z,49.55
2022-11-11T05:08:00.306Z,50.88
2022-11-11T05:10:41.426Z,51.47
2022-11-11T05:13:41.023Z,51.77
2022-11-11T05:16:45.474Z,51.50
2022-11-11T05:19:45.565Z,52.92
2022-11-11T05:22:38.949Z,53.47
2022-11-11T05:25:26.372Z,52.35
2022-11-11T05:28:07.395Z,57.77
2022-11-11T05:30:49.065Z,50.42
2022-11-11T05:33:29.961Z,45.92
2022-11-11T05:36:11.389Z,47.67
2022-11-11T05:38:52.685Z,51.47
2022-11-11T05:41:33.702Z,46.03
2022-11-11T05:44:14.455Z,41.90
2022-11-11T05:46:55.831Z,41.95
2022-11-11T05:49:36.854Z,44.15
2022-11-11T05:52:18.397Z,40.60
2022-11-11T05:54:59.356Z,44.43
2022-11-11T05:57:40.867Z,39.08
2022-11-11T06:00:21.858Z,40.50
2022-11-11T06:03:04.479Z,42.10
2022-11-11T06:05:45.905Z,42.33
2022-11-11T06:08:27.050Z,42.40
2022-11-11T06:11:08.282Z,41.55
2022-11-11T06:13:49.564Z,45.83
2022-11-11T06:16:30.398Z,37.72
2022-11-11T06:19:11.268Z,39.13
2022-11-11T06:21:58.931Z,39.17
2022-11-11T06:25:03.382Z,37.65
2022-11-11T06:27:44.330Z,37.13
2022-11-11T06:30:48.181Z,37.55
2022-11-11T06:33:27.627Z,33.28
2022-11-11T06:36:13.353Z,35.57
2022-11-11T06:38:55.009Z,31.55
2022-11-11T06:41:36.772Z,35.67
2022-11-11T06:44:20.950Z,35.10
2022-11-11T06:47:02.588Z,33.30
2022-11-11T06:49:43.412Z,32.37
2022-11-11T06:52:26.161Z,34.00
2022-11-11T06:55:07.820Z,33.70
2022-11-11T06:58:14.161Z,29.73
2022-11-11T07:00:55.419Z,31.15
2022-11-11T07:03:37.014Z,31.60
2022-11-11T07:06:18.259Z,31.63
2022-11-11T07:09:00.042Z,30.23
2022-11-11T07:11:41.185Z,31.45
2022-11-11T07:14:22.369Z,32.60
2022-11-11T07:17:06.341Z,29.20
2022-11-11T07:19:48.580Z,26.63
2022-11-11T07:22:34.207Z,29.02
2022-11-11T07:25:18.396Z,28.60
2022-11-11T07:28:00.042Z,27.50
2022-11-11T07:30:42.557Z,26.50
2022-11-11T07:33:24.973Z,27.88
2022-11-11T07:36:06.798Z,28.70
2022-11-11T07:38:48.326Z,32.00
2022-11-11T07:41:29.804Z,26.13
2022-11-11T07:44:11.278Z,28.90
2022-11-11T07:46:53.300Z,27.77
2022-11-11T07:49:34.895Z,26.02
2022-11-11T07:52:16.140Z,29.15
2022-11-11T07:54:57.796Z,27.90
2022-11-11T07:57:39.204Z,32.35
2022-11-11T08:00:20.925Z,34.40
2022-11-11T08:03:08.106Z,34.22
2022-11-11T08:05:52.018Z,31.75
2022-11-11T08:08:33.350Z,32.83
2022-11-11T08:11:15.726Z,33.85
2022-11-11T08:13:57.067Z,32.50
2022-11-11T08:16:37.903Z,30.83
2022-11-11T08:19:19.310Z,33.30
2022-11-11T08:22:00.575Z,31.38
2022-11-11T08:25:03.525Z,32.00
2022-11-11T08:27:43.722Z,29.05
2022-11-11T08:30:25.152Z,33.30
2022-11-11T08:36:08.409Z,28.90
2022-11-11T08:38:49.682Z,29.10
2022-11-11T08:41:30.979Z,35.22
2022-11-11T08:44:12.616Z,28.25
2022-11-11T08:46:54.323Z,27.60
2022-11-11T08:49:37.418Z,30.55
2022-11-11T08:52:23.031Z,27.85
2022-11-11T08:55:06.254Z,30.67
2022-11-11T08:58:20.870Z,26.33
2022-11-11T09:01:04.405Z,27.23
2022-11-11T09:03:46.350Z,27.02
2022-11-11T09:06:28.930Z,27.85
2022-11-11T09:09:10.220Z,28.83
2022-11-11T09:11:51.213Z,28.08
2022-11-11T09:14:32.408Z,30.73
2022-11-11T09:17:14.079Z,27.60
2022-11-11T09:19:55.513Z,34.00
2022-11-11T09:22:42.978Z,30.85
2022-11-11T09:25:23.999Z,30.20
2022-11-11T09:28:05.413Z,32.13
2022-11-11T09:30:46.302Z,28.77
2022-11-11T09:33:29.060Z,27.27
2022-11-11T09:36:10.766Z,30.67
2022-11-11T09:38:52.054Z,29.55
2022-11-11T09:41:45.630Z,31.40
2022-11-11T09:45:11.110Z,32.08
2022-11-11T09:48:10.459Z,28.10
2022-11-11T09:50:56.200Z,32.25
2022-11-11T09:53:44.591Z,34.90
2022-11-11T09:56:32.008Z,32.70
2022-11-11T09:59:27.741Z,30.73
2022-11-11T10:02:18.679Z,28.80
2022-11-11T10:05:11.032Z,31.98
2022-11-11T10:08:06.167Z,30.55
2022-11-11T10:10:52.678Z,32.40
2022-11-11T10:13:37.181Z,31.65
2022-11-11T10:16:36.324Z,32.20
2022-11-11T10:19:59.115Z,33.75
2022-11-11T10:22:43.224Z,29.80
2022-11-11T10:25:28.371Z,30.20
2022-11-11T10:28:19.136Z,26.30
2022-11-11T10:31:02.574Z,27.77
2022-11-11T10:34:10.817Z,28.67
2022-11-11T10:36:56.287Z,25.10
2022-11-11T10:40:31.916Z,25.23
2022-11-11T10:43:23.623Z,24.10
2022-11-11T10:46:34.216Z,29.85
2022-11-11T10:49:21.857Z,27.00
2022-11-11T10:52:09.001Z,28.83
2022-11-11T10:55:00.533Z,27.77
2022-11-11T10:58:24.506Z,27.60
2022-11-11T11:01:14.342Z,28.17
2022-11-11T11:04:05.293Z,24.25
2022-11-11T11:07:02.038Z,23.92
2022-11-11T11:09:53.460Z,24.23
2022-11-11T11:12:44.001Z,24.13
2022-11-11T11:15:31.173Z,28.77
2022-11-11T11:18:15.097Z,20.73
2022-11-11T11:21:03.796Z,21.63
2022-11-11T11:23:47.400Z,20.90
2022-11-11T11:26:43.981Z,21.50
2022-11-11T11:29:45.386Z,23.33
2022-11-11T11:32:29.931Z,24.45
2022-11-11T11:35:32.209Z,25.15
2022-11-11T11:38:14.206Z,25.40
2022-11-11T11:40:56.869Z,26.80
2022-11-11T11:43:42.855Z,26.02
2022-11-11T11:46:40.529Z,29.08
2022-11-11T11:49:30.672Z,29.98
2022-11-11T11:52:49.340Z,26.15
2022-11-11T11:55:44.727Z,24.60
2022-11-11T11:58:42.481Z,23.98
2022-11-11T12:01:43.563Z,22.55
2022-11-11T12:04:47.898Z,26.85
2022-11-11T12:07:44.473Z,23.45
2022-11-11T12:10:44.851Z,22.30
2022-11-11T12:13:53.653Z,23.27
2022-11-11T12:16:47.255Z,22.45
2022-11-11T12:19:50.730Z,27.48
2022-11-11T12:23:00.070Z,25.65
2022-11-11T12:26:05.950Z,24.35
2022-11-11T12:29:09.799Z,27.65
2022-11-11T12:32:06.824Z,24.00
2022-11-11T12:35:17.609Z,26.83
2022-11-11T12:38:20.114Z,27.83
2022-11-11T12:41:08.347Z,23.60
2022-11-11T12:44:24.886Z,24.48
2022-11-11T12:47:28.459Z,25.02
2022-11-11T12:50:18.049Z,20.75
2022-11-11T12:53:05.479Z,19.73
2022-11-11T12:56:19.939Z,17.15
2022-11-11T12:59:13.228Z,17.50
2022-11-11T13:02:10.328Z,18.80
2022-11-11T13:05:43.663Z,16.95
2022-11-11T13:08:41.637Z,15.63
2022-11-11T13:11:28.669Z,16.52
2022-11-11T13:14:25.029Z,18.48
2022-11-11T13:17:12.700Z,19.88
2022-11-11T13:19:56.002Z,20.08
2022-11-11T13:22:37.267Z,16.98
2022-11-11T13:25:28.506Z,20.23
2022-11-11T13:28:16.056Z,16.58
2022-11-11T13:31:08.903Z,18.55
2022-11-11T13:33:53.601Z,18.83
2022-11-11T13:36:44.055Z,17.42
2022-11-11T13:39:30.036Z,21.65
2022-11-11T13:42:21.643Z,20.02
2022-11-11T13:45:16.220Z,21.15
2022-11-11T13:48:00.869Z,19.75
2022-11-11T13:50:43.190Z,19.67
2022-11-11T13:53:34.144Z,22.00
2022-11-11T13:56:35.617Z,20.13
2022-11-11T13:59:28.402Z,24.33
2022-11-11T14:02:21.098Z,19.27
2022-11-11T14:05:02.326Z,24.48
2022-11-11T14:07:49.423Z,22.63
2022-11-11T14:10:36.417Z,23.77
2022-11-11T14:13:26.527Z,27.98
2022-11-11T14:16:11.028Z,25.42
2022-11-11T14:18:52.123Z,28.02
2022-11-11T14:21:49.304Z,27.45
2022-11-11T14:24:47.212Z,25.30
2022-11-11T14:27:32.010Z,28.52
2022-11-11T14:30:35.214Z,29.08
2022-11-11T14:33:40.528Z,26.95
2022-11-11T14:36:33.769Z,26.85
2022-11-11T14:39:26.902Z,29.80
2022-11-11T14:42:35.763Z,24.98
2022-11-11T14:45:23.149Z,26.67
2022-11-11T14:48:43.410Z,28.77
2022-11-11T14:51:51.954Z,26.33
2022-11-11T14:54:37.294Z,27.70
2022-11-11T14:57:25.064Z,28.65
2022-11-11T15:00:33.572Z,28.85
2022-11-11T15:03:26.956Z,29.63
2022-11-11T15:06:18.625Z,32.97
2022-11-11T15:09:15.656Z,34.92
2022-11-11T15:12:16.358Z,30.83
2022-11-11T15:15:11.180Z,33.58
2022-11-11T15:18:14.568Z,33.85
2022-11-11T15:20:58.399Z,30.90
2022-11-11T15:23:53.369Z,29.00
2022-11-11T15:27:00.364Z,30.17
2022-11-11T15:29:57.888Z,30.25
2022-11-11T15:32:47.835Z,30.33
2022-11-11T15:35:58.353Z,28.08
2022-11-11T15:38:39.667Z,29.60
2022-11-11T15:41:35.171Z,36.03
2022-11-11T15:44:37.110Z,35.08
2022-11-11T15:47:21.060Z,31.67
2022-11-11T15:50:02.401Z,36.67
2022-11-11T15:52:43.420Z,35.40
2022-11-11T15:55:26.332Z,37.65
2022-11-11T15:58:26.125Z,34.53
2022-11-11T16:01:08.365Z,35.08
2022-11-11T16:03:49.356Z,34.97
2022-11-11T16:06:30.513Z,31.52
2022-11-11T16:09:14.964Z,32.25
2022-11-11T16:11:57.860Z,33.80
2022-11-11T16:14:43.941Z,33.90
2022-11-11T16:17:32.707Z,32.20
2022-11-11T16:20:16.183Z,32.60
2022-11-11T16:23:01.765Z,33.63
2022-11-11T16:25:42.935Z,33.78
2022-11-11T16:28:25.701Z,33.38
2022-11-11T16:31:32.122Z,32.42
2022-11-11T16:34:28.880Z,29.48
2022-11-11T16:37:16.472Z,33.50
2022-11-11T16:39:57.427Z,33.35
2022-11-11T16:42:38.433Z,33.97
2022-11-11T16:45:22.647Z,38.50
2022-11-11T16:48:04.418Z,38.35
2022-11-11T16:51:02.088Z,34.03
2022-11-11T16:54:04.900Z,39.17
2022-11-11T16:56:58.300Z,35.42
2022-11-11T16:59:45.068Z,33.33
2022-11-11T17:02:27.217Z,33.88
2022-11-11T17:05:09.344Z,34.80
2022-11-11T17:07:50.778Z,35.38
2022-11-11T17:10:39.063Z,30.83
2022-11-11T17:13:19.764Z,34.78
2022-11-11T17:16:04.533Z,28.88
2022-11-11T17:18:45.813Z,32.25
2022-11-11T17:21:27.006Z,28.92
2022-11-11T17:24:08.359Z,31.20
2022-11-11T17:26:49.482Z,32.17
2022-11-11T17:29:37.353Z,28.63
2022-11-11T17:32:19.713Z,28.75
2022-11-11T17:35:00.822Z,30.52
2022-11-11T17:37:41.868Z,24.20
2022-11-11T17:40:23.325Z,30.73
2022-11-11T17:43:04.729Z,28.05
2022-11-11T17:45:46.333Z,29.67
2022-11-11T17:48:27.944Z,29.58
2022-11-11T17:51:10.034Z,35.83
2022-11-11T17:53:52.503Z,39.15
2022-11-11T17:56:33.909Z,31.38
2022-11-11T17:59:15.345Z,31.60
2022-11-11T18:01:57.210Z,32.42
2022-11-11T18:04:38.847Z,28.90
2022-11-11T18:07:20.555Z,26.45
2022-11-11T18:10:02.691Z,28.83
2022-11-11T18:12:43.941Z,28.02
2022-11-11T18:15:25.380Z,32.97
2022-11-11T18:18:07.415Z,34.03
2022-11-11T18:20:49.215Z,29.55
2022-11-11T18:23:35.605Z,29.23
2022-11-11T18:26:17.080Z,33.67
2022-11-11T18:28:58.578Z,27.30
2022-11-11T18:31:40.093Z,30.20
2022-11-11T18:34:21.858Z,29.35
2022-11-11T18:37:03.245Z,28.48
2022-11-11T18:39:45.029Z,31.02
2022-11-11T18:42:26.293Z,29.85
2022-11-11T18:45:07.619Z,29.38
2022-11-11T18:47:51.143Z,30.05
2022-11-11T18:50:33.584Z,31.35
2022-11-11T18:53:15.364Z,29.35
2022-11-11T18:55:56.521Z,31.70
2022-11-11T18:58:39.418Z,30.25
2022-11-11T19:01:29.473Z,28.83
2022-11-11T19:04:11.196Z,31.88
2022-11-11T19:06:52.834Z,30.70
2022-11-11T19:09:34.312Z,30.58
2022-11-11T19:12:15.287Z,45.97
2022-11-11T19:14:56.566Z,34.97
2022-11-11T19:17:38.958Z,44.75
2022-11-11T19:20:20.691Z,35.80
2022-11-11T19:23:02.072Z,27.67
2022-11-11T19:25:43.921Z,28.77
2022-11-11T19:28:26.224Z,24.50
2022-11-11T19:31:16.679Z,24.50
2022-11-11T19:33:58.958Z,25.92
2022-11-11T19:36:40.273Z,28.88
2022-11-11T19:39:22.123Z,25.00
2022-11-11T19:42:03.824Z,27.73
2022-11-11T19:44:44.884Z,31.17
2022-11-11T19:47:26.922Z,29.33
2022-11-11T19:50:10.123Z,29.27
2022-11-11T19:52:52.031Z,28.15
2022-11-11T19:55:33.491Z,26.42
2022-11-11T19:58:14.796Z,25.02
2022-11-11T20:00:57.000Z,24.70
2022-11-11T20:03:40.277Z,26.60
2022-11-11T20:06:31.324Z,23.38
2022-11-11T20:09:14.783Z,25.90
2022-11-11T20:11:56.510Z,24.47
2022-11-11T20:14:37.728Z,22.33
2022-11-11T20:17:19.411Z,23.40
2022-11-11T20:20:00.511Z,25.02
2022-11-11T20:22:42.095Z,23.35
2022-11-11T20:25:23.980Z,24.13
2022-11-11T20:28:05.405Z,26.58
2022-11-11T20:30:46.380Z,24.50
2022-11-11T20:33:28.113Z,25.73
2022-11-11T20:36:12.578Z,24.67
2022-11-11T20:38:54.359Z,26.17
2022-11-11T20:41:36.257Z,25.95
2022-11-11T20:44:17.669Z,22.77
2022-11-11T20:46:59.176Z,25.45
2022-11-11T20:49:43.650Z,23.13
2022-11-11T20:52:24.928Z,26.77
2022-11-11T20:55:06.997Z,22.67
2022-11-11T20:57:48.529Z,25.73
2022-11-11T21:00:30.340Z,30.88
2022-11-11T21:03:11.906Z,30.25
2022-11-11T21:05:53.460Z,51.50
2022-11-11T21:08:36.514Z,36.05
2022-11-11T21:11:20.194Z,34.67
2022-11-11T21:14:02.390Z,27.85
2022-11-11T21:16:43.880Z,29.75
2022-11-11T21:19:25.092Z,24.10
2022-11-11T21:22:10.170Z,29.38
2022-11-11T21:24:51.694Z,29.38
2022-11-11T21:27:34.232Z,26.83
2022-11-11T21:30:16.125Z,29.02
2022-11-11T21:32:57.902Z,30.43
2022-11-11T21:35:39.188Z,28.75
2022-11-11T21:38:20.698Z,30.92
2022-11-11T21:41:13.875Z,30.05
2022-11-11T21:43:55.762Z,33.05
2022-11-11T21:46:38.467Z,30.98
2022-11-11T21:49:19.778Z,31.27
2022-11-11T21:52:00.540Z,34.67
2022-11-11T21:54:41.514Z,27.65
2022-11-11T21:57:22.723Z,29.65
2022-11-11T22:00:04.479Z,31.10
2022-11-11T22:02:45.780Z,29.95
2022-11-11T22:05:26.868Z,29.65
2022-11-11T22:08:07.681Z,33.83
2022-11-11T22:10:48.537Z,32.05
2022-11-11T22:13:31.226Z,33.87
2022-11-11T22:16:17.200Z,34.80
2022-11-11T22:19:01.588Z,31.00
2022-11-11T22:21:43.920Z,32.83
2022-11-11T22:24:25.057Z,35.90
2022-11-11T22:27:05.913Z,33.43
2022-11-11T22:29:46.805Z,31.27
2022-11-11T22:32:27.785Z,31.02
2022-11-11T22:35:08.840Z,36.15
2022-11-11T22:37:49.799Z,32.95
2022-11-11T22:40:30.634Z,30.27
2022-11-11T22:43:12.156Z,31.90
2022-11-11T22:45:57.984Z,32.08
2022-11-11T22:48:40.064Z,27.88
2022-11-11T22:51:22.746Z,29.63
2022-11-11T22:54:06.618Z,33.00
2022-11-11T22:56:48.571Z,31.88
2022-11-11T22:59:30.236Z,29.60
2022-11-11T23:02:11.334Z,31.25
2022-11-11T23:04:52.325Z,30.70
2022-11-11T23:07:33.209Z,28.17
2022-11-11T23:10:14.326Z,30.20
2022-11-11T23:12:58.708Z,28.90
2022-11-11T23:15:40.128Z,29.13
2022-11-11T23:18:22.632Z,27.23
2022-11-11T23:21:11.248Z,29.05
2022-11-11T23:23:52.643Z,29.35
2022-11-11T23:26:33.902Z,31.45
2022-11-11T23:29:14.940Z,33.40
2022-11-11T23:31:56.375Z,28.95
2022-11-11T23:34:37.470Z,29.70
2022-11-11T23:37:18.741Z,27.67
2022-11-11T23:39:59.961Z,27.45
2022-11-11T23:42:41.271Z,30.08
2022-11-11T23:45:22.462Z,28.83
2022-11-11T23:48:03.681Z,26.00
2022-11-11T23:50:45.205Z,29.38
2022-11-11T23:53:26.805Z,29.90
2022-11-11T23:56:07.847Z,27.52
2022-11-11T23:58:49.140Z,31.48
